sensor_id;sensor_type;location;lat;lon;timestamp;temperature;humidity
17918;DHT22;9084;50.956;3.106;2022-07-01T00:02:05;13.60;99.90
17918;DHT22;9084;50.956;3.106;2022-07-01T00:04:34;13.60;99.90
17918;DHT22;9084;50.956;3.106;2022-07-01T00:07:00;13.60;99.90
17918;DHT22;9084;50.956;3.106;2022-07-01T00:09:26;13.60;99.90
17918;DHT22;9084;50.956;3.106;2022-07-01T00:11:52;13.60;99.90
17918;DHT22;9084;50.956;3.106;2022-07-01T00:14:18;13.60;99.90
17918;DHT22;9084;50.956;3.106;2022-07-01T00:16:45;13.50;99.90
17918;DHT22;9084;50.956;3.106;2022-07-01T00:19:11;13.50;99.90
17918;DHT22;9084;50.956;3.106;2022-07-01T00:21:36;13.50;99.90
17918;DHT22;9084;50.956;3.106;2022-07-01T00:24:02;13.50;99.90
17918;DHT22;9084;50.956;3.106;2022-07-01T00:26:28;13.50;99.90
17918;DHT22;9084;50.956;3.106;2022-07-01T00:28:54;13.40;99.90
17918;DHT22;9084;50.956;3.106;2022-07-01T00:31:19;13.40;99.90
17918;DHT22;9084;50.956;3.106;2022-07-01T00:33:48;13.30;99.90
17918;DHT22;9084;50.956;3.106;2022-07-01T00:36:16;13.30;99.90
17918;DHT22;9084;50.956;3.106;2022-07-01T00:38:41;13.30;99.90
17918;DHT22;9084;50.956;3.106;2022-07-01T00:41:07;13.30;99.90
17918;DHT22;9084;50.956;3.106;2022-07-01T00:43:36;13.30;99.90
17918;DHT22;9084;50.956;3.106;2022-07-01T00:46:06;13.20;99.90
17918;DHT22;9084;50.956;3.106;2022-07-01T00:48:32;13.10;99.90
17918;DHT22;9084;50.956;3.106;2022-07-01T00:50:59;13.10;99.90
17918;DHT22;9084;50.956;3.106;2022-07-01T00:53:28;13.10;99.90
17918;DHT22;9084;50.956;3.106;2022-07-01T00:55:57;13.20;99.90
17918;DHT22;9084;50.956;3.106;2022-07-01T00:58:28;13.10;99.90
17918;DHT22;9084;50.956;3.106;2022-07-01T01:00:56;13.10;99.90
17918;DHT22;9084;50.956;3.106;2022-07-01T01:03:22;13.10;99.90
17918;DHT22;9084;50.956;3.106;2022-07-01T01:05:50;13.00;99.90
17918;DHT22;9084;50.956;3.106;2022-07-01T01:08:20;12.90;99.90
17918;DHT22;9084;50.956;3.106;2022-07-01T01:10:48;12.90;99.90
17918;DHT22;9084;50.956;3.106;2022-07-01T01:13:15;12.90;99.90
17918;DHT22;9084;50.956;3.106;2022-07-01T01:15:44;13.00;99.90
17918;DHT22;9084;50.956;3.106;2022-07-01T01:18:12;12.90;99.90
17918;DHT22;9084;50.956;3.106;2022-07-01T01:20:37;12.90;99.90
17918;DHT22;9084;50.956;3.106;2022-07-01T01:23:04;12.80;99.90
17918;DHT22;9084;50.956;3.106;2022-07-01T01:25:34;12.80;99.90
17918;DHT22;9084;50.956;3.106;2022-07-01T01:28:03;12.80;99.90
17918;DHT22;9084;50.956;3.106;2022-07-01T01:30:30;12.70;99.90
17918;DHT22;9084;50.956;3.106;2022-07-01T01:32:58;12.80;99.90
17918;DHT22;9084;50.956;3.106;2022-07-01T01:35:26;12.80;99.90
17918;DHT22;9084;50.956;3.106;2022-07-01T01:37:52;12.70;99.90
17918;DHT22;9084;50.956;3.106;2022-07-01T01:40:19;12.70;99.90
17918;DHT22;9084;50.956;3.106;2022-07-01T01:42:45;12.70;99.90
17918;DHT22;9084;50.956;3.106;2022-07-01T01:45:12;12.70;99.90
17918;DHT22;9084;50.956;3.106;2022-07-01T01:47:41;12.70;99.90
17918;DHT22;9084;50.956;3.106;2022-07-01T01:50:11;12.70;99.90
17918;DHT22;9084;50.956;3.106;2022-07-01T01:52:40;12.80;99.90
17918;DHT22;9084;50.956;3.106;2022-07-01T01:55:09;12.70;99.90
17918;DHT22;9084;50.956;3.106;2022-07-01T01:57:34;12.70;99.90
17918;DHT22;9084;50.956;3.106;2022-07-01T02:00:01;12.70;99.90
17918;DHT22;9084;50.956;3.106;2022-07-01T02:02:29;12.70;99.90
17918;DHT22;9084;50.956;3.106;2022-07-01T02:04:58;12.80;99.90
17918;DHT22;9084;50.956;3.106;2022-07-01T02:07:24;12.70;99.90
17918;DHT22;9084;50.956;3.106;2022-07-01T02:09:50;12.70;99.90
17918;DHT22;9084;50.956;3.106;2022-07-01T02:12:18;12.70;99.90
17918;DHT22;9084;50.956;3.106;2022-07-01T02:14:43;12.60;99.90
17918;DHT22;9084;50.956;3.106;2022-07-01T02:17:09;12.60;99.90
17918;DHT22;9084;50.956;3.106;2022-07-01T02:19:34;12.60;99.90
17918;DHT22;9084;50.956;3.106;2022-07-01T02:22:00;12.60;99.90
17918;DHT22;9084;50.956;3.106;2022-07-01T02:24:25;12.60;99.90
17918;DHT22;9084;50.956;3.106;2022-07-01T02:26:56;12.60;99.90
17918;DHT22;9084;50.956;3.106;2022-07-01T02:29:22;12.60;99.90
17918;DHT22;9084;50.956;3.106;2022-07-01T02:31:51;12.50;99.90
17918;DHT22;9084;50.956;3.106;2022-07-01T02:34:16;12.50;99.90
17918;DHT22;9084;50.956;3.106;2022-07-01T02:36:42;12.40;99.90
17918;DHT22;9084;50.956;3.106;2022-07-01T02:39:08;12.40;99.90
17918;DHT22;9084;50.956;3.106;2022-07-01T02:41:34;12.40;99.90
17918;DHT22;9084;50.956;3.106;2022-07-01T02:44:19;12.40;99.90
17918;DHT22;9084;50.956;3.106;2022-07-01T02:46:48;12.40;99.90
17918;DHT22;9084;50.956;3.106;2022-07-01T02:49:13;12.30;99.90
17918;DHT22;9084;50.956;3.106;2022-07-01T02:51:40;12.30;99.90
17918;DHT22;9084;50.956;3.106;2022-07-01T02:54:08;12.30;99.90
17918;DHT22;9084;50.956;3.106;2022-07-01T02:56:37;12.30;99.90
17918;DHT22;9084;50.956;3.106;2022-07-01T02:59:04;12.30;99.90
17918;DHT22;9084;50.956;3.106;2022-07-01T03:01:33;12.40;99.90
17918;DHT22;9084;50.956;3.106;2022-07-01T03:04:01;12.40;99.90
17918;DHT22;9084;50.956;3.106;2022-07-01T03:06:27;12.40;99.90
17918;DHT22;9084;50.956;3.106;2022-07-01T03:08:53;12.40;99.90
17918;DHT22;9084;50.956;3.106;2022-07-01T03:11:21;12.30;99.90
17918;DHT22;9084;50.956;3.106;2022-07-01T03:13:47;12.30;99.90
17918;DHT22;9084;50.956;3.106;2022-07-01T03:16:13;12.30;99.90
17918;DHT22;9084;50.956;3.106;2022-07-01T03:18:39;12.30;99.90
17918;DHT22;9084;50.956;3.106;2022-07-01T03:21:05;12.30;99.90
17918;DHT22;9084;50.956;3.106;2022-07-01T03:23:32;12.30;99.90
17918;DHT22;9084;50.956;3.106;2022-07-01T03:26:01;12.30;99.90
17918;DHT22;9084;50.956;3.106;2022-07-01T03:28:26;12.30;99.90
17918;DHT22;9084;50.956;3.106;2022-07-01T03:30:52;12.30;99.90
17918;DHT22;9084;50.956;3.106;2022-07-01T03:33:18;12.20;99.90
17918;DHT22;9084;50.956;3.106;2022-07-01T03:35:44;12.30;99.90
17918;DHT22;9084;50.956;3.106;2022-07-01T03:38:19;12.30;99.90
17918;DHT22;9084;50.956;3.106;2022-07-01T03:40:44;12.20;99.90
17918;DHT22;9084;50.956;3.106;2022-07-01T03:43:10;12.20;99.90
17918;DHT22;9084;50.956;3.106;2022-07-01T03:45:38;12.20;99.90
17918;DHT22;9084;50.956;3.106;2022-07-01T03:48:05;12.20;99.90
17918;DHT22;9084;50.956;3.106;2022-07-01T03:50:33;12.20;99.90
17918;DHT22;9084;50.956;3.106;2022-07-01T03:52:59;12.20;99.90
17918;DHT22;9084;50.956;3.106;2022-07-01T03:55:46;12.20;99.90
17918;DHT22;9084;50.956;3.106;2022-07-01T03:58:12;12.20;99.90
17918;DHT22;9084;50.956;3.106;2022-07-01T04:00:38;12.20;99.90
17918;DHT22;9084;50.956;3.106;2022-07-01T04:03:07;12.10;99.90
17918;DHT22;9084;50.956;3.106;2022-07-01T04:05:37;12.10;99.90
17918;DHT22;9084;50.956;3.106;2022-07-01T04:08:07;12.10;99.90
17918;DHT22;9084;50.956;3.106;2022-07-01T04:10:34;12.10;99.90
17918;DHT22;9084;50.956;3.106;2022-07-01T04:13:01;12.10;99.90
17918;DHT22;9084;50.956;3.106;2022-07-01T04:15:29;12.10;99.90
17918;DHT22;9084;50.956;3.106;2022-07-01T04:17:56;12.20;99.90
17918;DHT22;9084;50.956;3.106;2022-07-01T04:20:21;12.10;99.90
17918;DHT22;9084;50.956;3.106;2022-07-01T04:22:47;12.20;99.90
17918;DHT22;9084;50.956;3.106;2022-07-01T04:25:15;12.20;99.90
17918;DHT22;9084;50.956;3.106;2022-07-01T04:27:42;12.20;99.90
17918;DHT22;9084;50.956;3.106;2022-07-01T04:30:10;12.20;99.90
17918;DHT22;9084;50.956;3.106;2022-07-01T04:32:36;12.20;99.90
17918;DHT22;9084;50.956;3.106;2022-07-01T04:35:02;12.30;99.90
17918;DHT22;9084;50.956;3.106;2022-07-01T04:37:28;12.30;99.90
17918;DHT22;9084;50.956;3.106;2022-07-01T04:39:54;12.30;99.90
17918;DHT22;9084;50.956;3.106;2022-07-01T04:42:20;12.40;99.90
17918;DHT22;9084;50.956;3.106;2022-07-01T04:44:47;12.40;99.90
17918;DHT22;9084;50.956;3.106;2022-07-01T04:47:13;12.50;99.90
17918;DHT22;9084;50.956;3.106;2022-07-01T04:49:39;12.50;99.90
17918;DHT22;9084;50.956;3.106;2022-07-01T04:52:05;12.60;99.90
17918;DHT22;9084;50.956;3.106;2022-07-01T04:54:34;12.60;99.90
17918;DHT22;9084;50.956;3.106;2022-07-01T04:57:01;12.60;99.90
17918;DHT22;9084;50.956;3.106;2022-07-01T04:59:27;12.60;99.90
17918;DHT22;9084;50.956;3.106;2022-07-01T05:01:55;12.70;99.90
17918;DHT22;9084;50.956;3.106;2022-07-01T05:04:24;12.70;99.90
17918;DHT22;9084;50.956;3.106;2022-07-01T05:06:51;12.70;99.90
17918;DHT22;9084;50.956;3.106;2022-07-01T05:09:17;12.80;99.90
17918;DHT22;9084;50.956;3.106;2022-07-01T05:11:43;12.80;99.90
17918;DHT22;9084;50.956;3.106;2022-07-01T05:14:09;12.80;99.90
17918;DHT22;9084;50.956;3.106;2022-07-01T05:16:35;12.90;99.90
17918;DHT22;9084;50.956;3.106;2022-07-01T05:19:02;12.90;99.90
17918;DHT22;9084;50.956;3.106;2022-07-01T05:21:51;13.00;99.90
17918;DHT22;9084;50.956;3.106;2022-07-01T05:24:26;13.00;99.90
17918;DHT22;9084;50.956;3.106;2022-07-01T05:26:53;13.10;99.90
17918;DHT22;9084;50.956;3.106;2022-07-01T05:29:20;13.10;99.90
17918;DHT22;9084;50.956;3.106;2022-07-01T05:31:46;13.20;99.90
17918;DHT22;9084;50.956;3.106;2022-07-01T05:34:12;13.20;99.90
17918;DHT22;9084;50.956;3.106;2022-07-01T05:36:40;13.30;99.90
17918;DHT22;9084;50.956;3.106;2022-07-01T05:39:08;13.30;99.90
17918;DHT22;9084;50.956;3.106;2022-07-01T05:41:34;13.40;99.90
17918;DHT22;9084;50.956;3.106;2022-07-01T05:44:02;13.40;99.90
17918;DHT22;9084;50.956;3.106;2022-07-01T05:46:28;13.50;99.90
17918;DHT22;9084;50.956;3.106;2022-07-01T05:48:54;13.50;99.90
17918;DHT22;9084;50.956;3.106;2022-07-01T05:51:19;13.70;99.90
17918;DHT22;9084;50.956;3.106;2022-07-01T05:53:48;13.70;99.90
17918;DHT22;9084;50.956;3.106;2022-07-01T05:56:14;13.70;99.90
17918;DHT22;9084;50.956;3.106;2022-07-01T05:58:42;13.90;99.90
17918;DHT22;9084;50.956;3.106;2022-07-01T06:01:10;13.90;99.90
17918;DHT22;9084;50.956;3.106;2022-07-01T06:03:36;13.90;99.90
17918;DHT22;9084;50.956;3.106;2022-07-01T06:06:04;14.00;99.90
17918;DHT22;9084;50.956;3.106;2022-07-01T06:08:32;14.10;99.90
17918;DHT22;9084;50.956;3.106;2022-07-01T06:10:58;14.20;99.90
17918;DHT22;9084;50.956;3.106;2022-07-01T06:13:24;14.20;99.90
17918;DHT22;9084;50.956;3.106;2022-07-01T06:15:50;14.30;99.90
17918;DHT22;9084;50.956;3.106;2022-07-01T06:18:16;14.40;99.90
17918;DHT22;9084;50.956;3.106;2022-07-01T06:20:42;14.50;99.90
17918;DHT22;9084;50.956;3.106;2022-07-01T06:23:10;14.50;99.90
17918;DHT22;9084;50.956;3.106;2022-07-01T06:25:35;14.60;99.90
17918;DHT22;9084;50.956;3.106;2022-07-01T06:28:01;14.70;99.90
17918;DHT22;9084;50.956;3.106;2022-07-01T06:30:27;14.70;99.90
17918;DHT22;9084;50.956;3.106;2022-07-01T06:32:55;14.80;99.90
17918;DHT22;9084;50.956;3.106;2022-07-01T06:35:21;14.90;99.90
17918;DHT22;9084;50.956;3.106;2022-07-01T06:37:49;15.00;99.90
17918;DHT22;9084;50.956;3.106;2022-07-01T06:40:17;15.00;99.90
17918;DHT22;9084;50.956;3.106;2022-07-01T06:42:45;15.10;99.90
17918;DHT22;9084;50.956;3.106;2022-07-01T06:45:11;15.10;99.90
17918;DHT22;9084;50.956;3.106;2022-07-01T06:47:37;15.20;99.90
17918;DHT22;9084;50.956;3.106;2022-07-01T06:50:05;15.30;99.90
17918;DHT22;9084;50.956;3.106;2022-07-01T06:52:33;15.30;99.90
17918;DHT22;9084;50.956;3.106;2022-07-01T06:54:59;15.40;96.30
17918;DHT22;9084;50.956;3.106;2022-07-01T06:57:26;15.50;95.30
17918;DHT22;9084;50.956;3.106;2022-07-01T06:59:52;15.50;91.70
17918;DHT22;9084;50.956;3.106;2022-07-01T07:02:18;15.60;92.20
17918;DHT22;9084;50.956;3.106;2022-07-01T07:04:44;15.70;90.60
17918;DHT22;9084;50.956;3.106;2022-07-01T07:07:10;15.70;81.30
17918;DHT22;9084;50.956;3.106;2022-07-01T07:09:36;15.80;77.30
17918;DHT22;9084;50.956;3.106;2022-07-01T07:12:01;15.80;74.90
17918;DHT22;9084;50.956;3.106;2022-07-01T07:14:29;15.90;83.30
17918;DHT22;9084;50.956;3.106;2022-07-01T07:16:55;16.00;69.20
17918;DHT22;9084;50.956;3.106;2022-07-01T07:19:23;16.10;61.40
17918;DHT22;9084;50.956;3.106;2022-07-01T07:21:51;16.10;55.10
17918;DHT22;9084;50.956;3.106;2022-07-01T07:24:16;16.20;53.40
17918;DHT22;9084;50.956;3.106;2022-07-01T07:26:42;16.30;55.80
17918;DHT22;9084;50.956;3.106;2022-07-01T07:29:08;16.40;55.90
17918;DHT22;9084;50.956;3.106;2022-07-01T07:31:34;16.50;45.80
17918;DHT22;9084;50.956;3.106;2022-07-01T07:34:00;16.50;37.20
17918;DHT22;9084;50.956;3.106;2022-07-01T07:36:26;16.60;40.90
17918;DHT22;9084;50.956;3.106;2022-07-01T07:38:52;16.70;34.60
17918;DHT22;9084;50.956;3.106;2022-07-01T07:41:21;16.80;39.40
17918;DHT22;9084;50.956;3.106;2022-07-01T07:43:47;16.80;35.00
17918;DHT22;9084;50.956;3.106;2022-07-01T07:46:14;16.90;34.60
17918;DHT22;9084;50.956;3.106;2022-07-01T07:48:40;17.00;28.00
17918;DHT22;9084;50.956;3.106;2022-07-01T07:51:10;17.00;27.80
17918;DHT22;9084;50.956;3.106;2022-07-01T07:53:39;17.10;27.90
17918;DHT22;9084;50.956;3.106;2022-07-01T07:56:05;17.10;20.20
17918;DHT22;9084;50.956;3.106;2022-07-01T07:58:31;17.20;18.70
17918;DHT22;9084;50.956;3.106;2022-07-01T08:00:56;17.30;17.40
17918;DHT22;9084;50.956;3.106;2022-07-01T08:03:22;17.50;15.20
17918;DHT22;9084;50.956;3.106;2022-07-01T08:05:50;17.60;11.20
17918;DHT22;9084;50.956;3.106;2022-07-01T08:08:16;17.70;8.20
17918;DHT22;9084;50.956;3.106;2022-07-01T08:10:46;17.80;12.00
17918;DHT22;9084;50.956;3.106;2022-07-01T08:13:14;17.80;8.90
17918;DHT22;9084;50.956;3.106;2022-07-01T08:15:42;17.90;9.10
17918;DHT22;9084;50.956;3.106;2022-07-01T08:18:11;18.00;5.40
17918;DHT22;9084;50.956;3.106;2022-07-01T08:20:36;18.20;1.90
17918;DHT22;9084;50.956;3.106;2022-07-01T08:23:02;18.30;1.00
17918;DHT22;9084;50.956;3.106;2022-07-01T08:25:28;18.40;1.00
17918;DHT22;9084;50.956;3.106;2022-07-01T08:27:54;18.50;1.00
17918;DHT22;9084;50.956;3.106;2022-07-01T08:30:20;18.60;1.00
17918;DHT22;9084;50.956;3.106;2022-07-01T08:32:46;18.60;1.00
17918;DHT22;9084;50.956;3.106;2022-07-01T08:35:12;18.80;1.00
17918;DHT22;9084;50.956;3.106;2022-07-01T08:37:40;19.00;1.00
17918;DHT22;9084;50.956;3.106;2022-07-01T08:40:06;19.00;1.00
17918;DHT22;9084;50.956;3.106;2022-07-01T08:42:35;19.10;1.00
17918;DHT22;9084;50.956;3.106;2022-07-01T08:45:00;19.20;1.00
17918;DHT22;9084;50.956;3.106;2022-07-01T08:47:26;19.40;1.00
17918;DHT22;9084;50.956;3.106;2022-07-01T08:49:52;19.20;1.00
17918;DHT22;9084;50.956;3.106;2022-07-01T08:52:20;19.00;1.00
17918;DHT22;9084;50.956;3.106;2022-07-01T08:54:48;18.90;1.00
17918;DHT22;9084;50.956;3.106;2022-07-01T08:57:20;19.10;1.00
17918;DHT22;9084;50.956;3.106;2022-07-01T09:00:03;19.10;1.00
17918;DHT22;9084;50.956;3.106;2022-07-01T09:05:18;19.40;1.00
17918;DHT22;9084;50.956;3.106;2022-07-01T09:07:49;19.40;1.00
17918;DHT22;9084;50.956;3.106;2022-07-01T09:10:20;19.40;1.00
17918;DHT22;9084;50.956;3.106;2022-07-01T09:12:48;19.50;1.00
17918;DHT22;9084;50.956;3.106;2022-07-01T09:15:22;19.60;1.00
17918;DHT22;9084;50.956;3.106;2022-07-01T09:17:50;19.60;1.00
17918;DHT22;9084;50.956;3.106;2022-07-01T09:20:27;19.70;1.00
17918;DHT22;9084;50.956;3.106;2022-07-01T09:23:11;19.80;1.00
17918;DHT22;9084;50.956;3.106;2022-07-01T09:25:47;19.90;1.00
17918;DHT22;9084;50.956;3.106;2022-07-01T09:28:19;19.90;1.00
17918;DHT22;9084;50.956;3.106;2022-07-01T09:30:46;19.70;1.00
17918;DHT22;9084;50.956;3.106;2022-07-01T09:33:18;19.60;1.00
17918;DHT22;9084;50.956;3.106;2022-07-01T09:35:50;19.70;1.00
17918;DHT22;9084;50.956;3.106;2022-07-01T09:38:20;20.00;1.00
17918;DHT22;9084;50.956;3.106;2022-07-01T09:41:03;20.30;1.00
17918;DHT22;9084;50.956;3.106;2022-07-01T09:43:31;20.50;1.00
17918;DHT22;9084;50.956;3.106;2022-07-01T09:51:03;20.70;1.00
17918;DHT22;9084;50.956;3.106;2022-07-01T09:53:31;20.70;1.00
17918;DHT22;9084;50.956;3.106;2022-07-01T09:56:02;20.60;1.00
17918;DHT22;9084;50.956;3.106;2022-07-01T09:58:28;20.50;1.00
17918;DHT22;9084;50.956;3.106;2022-07-01T10:00:54;20.60;1.00
17918;DHT22;9084;50.956;3.106;2022-07-01T10:03:22;20.70;1.00
17918;DHT22;9084;50.956;3.106;2022-07-01T10:05:54;20.90;1.00
17918;DHT22;9084;50.956;3.106;2022-07-01T10:14:11;21.00;1.00
17918;DHT22;9084;50.956;3.106;2022-07-01T10:16:39;21.10;1.00
17918;DHT22;9084;50.956;3.106;2022-07-01T10:21:46;21.50;1.00
17918;DHT22;9084;50.956;3.106;2022-07-01T10:24:18;21.70;1.00
17918;DHT22;9084;50.956;3.106;2022-07-01T10:26:45;21.70;1.00
17918;DHT22;9084;50.956;3.106;2022-07-01T10:29:32;21.50;1.00
17918;DHT22;9084;50.956;3.106;2022-07-01T10:32:05;21.40;1.00
17918;DHT22;9084;50.956;3.106;2022-07-01T10:34:38;21.40;1.00
17918;DHT22;9084;50.956;3.106;2022-07-01T10:37:09;21.50;1.00
17918;DHT22;9084;50.956;3.106;2022-07-01T10:39:58;21.40;1.00
17918;DHT22;9084;50.956;3.106;2022-07-01T10:42:32;21.10;1.00
17918;DHT22;9084;50.956;3.106;2022-07-01T10:45:10;20.60;1.00
17918;DHT22;9084;50.956;3.106;2022-07-01T10:47:38;19.90;1.00
17918;DHT22;9084;50.956;3.106;2022-07-01T10:50:09;19.40;1.00
17918;DHT22;9084;50.956;3.106;2022-07-01T10:52:36;19.00;1.00
17918;DHT22;9084;50.956;3.106;2022-07-01T10:55:09;19.00;1.00
17918;DHT22;9084;50.956;3.106;2022-07-01T10:57:41;19.10;1.00
17918;DHT22;9084;50.956;3.106;2022-07-01T11:02:34;19.80;1.00
17918;DHT22;9084;50.956;3.106;2022-07-01T11:05:18;20.10;1.00
17918;DHT22;9084;50.956;3.106;2022-07-01T11:07:45;20.30;1.00
17918;DHT22;9084;50.956;3.106;2022-07-01T11:10:13;20.00;1.00
17918;DHT22;9084;50.956;3.106;2022-07-01T11:12:41;19.70;1.00
17918;DHT22;9084;50.956;3.106;2022-07-01T11:15:10;19.10;4.20
17918;DHT22;9084;50.956;3.106;2022-07-01T11:17:42;18.60;19.20
17918;DHT22;9084;50.956;3.106;2022-07-01T11:20:11;18.20;18.40
17918;DHT22;9084;50.956;3.106;2022-07-01T11:22:37;18.10;40.80
17918;DHT22;9084;50.956;3.106;2022-07-01T11:25:08;17.90;35.00
17918;DHT22;9084;50.956;3.106;2022-07-01T11:27:36;18.00;40.90
17918;DHT22;9084;50.956;3.106;2022-07-01T11:30:08;18.10;34.40
17918;DHT22;9084;50.956;3.106;2022-07-01T11:32:40;18.10;34.50
17918;DHT22;9084;50.956;3.106;2022-07-01T11:35:13;18.20;44.30
17918;DHT22;9084;50.956;3.106;2022-07-01T11:38:08;18.50;46.70
17918;DHT22;9084;50.956;3.106;2022-07-01T11:40:55;18.80;30.50
17918;DHT22;9084;50.956;3.106;2022-07-01T11:43:33;18.90;6.20
17918;DHT22;9084;50.956;3.106;2022-07-01T11:46:04;19.00;1.00
17918;DHT22;9084;50.956;3.106;2022-07-01T11:48:38;19.20;1.00
17918;DHT22;9084;50.956;3.106;2022-07-01T11:51:07;19.40;1.00
17918;DHT22;9084;50.956;3.106;2022-07-01T11:53:36;19.70;1.00
17918;DHT22;9084;50.956;3.106;2022-07-01T11:56:02;19.90;1.00
17918;DHT22;9084;50.956;3.106;2022-07-01T11:58:45;20.00;1.00
17918;DHT22;9084;50.956;3.106;2022-07-01T12:01:11;19.90;1.00
17918;DHT22;9084;50.956;3.106;2022-07-01T12:03:44;20.00;1.00
17918;DHT22;9084;50.956;3.106;2022-07-01T12:06:12;20.00;1.00
17918;DHT22;9084;50.956;3.106;2022-07-01T12:08:38;20.00;1.00
17918;DHT22;9084;50.956;3.106;2022-07-01T12:11:04;20.10;1.00
17918;DHT22;9084;50.956;3.106;2022-07-01T12:13:37;20.30;1.00
17918;DHT22;9084;50.956;3.106;2022-07-01T12:16:07;20.60;1.00
17918;DHT22;9084;50.956;3.106;2022-07-01T12:18:34;20.70;1.00
17918;DHT22;9084;50.956;3.106;2022-07-01T12:21:00;20.80;1.00
17918;DHT22;9084;50.956;3.106;2022-07-01T12:23:25;21.00;1.00
17918;DHT22;9084;50.956;3.106;2022-07-01T12:25:51;20.90;1.00
17918;DHT22;9084;50.956;3.106;2022-07-01T12:28:53;20.60;1.00
17918;DHT22;9084;50.956;3.106;2022-07-01T12:31:19;20.30;1.00
17918;DHT22;9084;50.956;3.106;2022-07-01T12:33:50;20.30;1.00
17918;DHT22;9084;50.956;3.106;2022-07-01T12:36:18;20.40;1.00
17918;DHT22;9084;50.956;3.106;2022-07-01T12:38:44;20.40;1.00
17918;DHT22;9084;50.956;3.106;2022-07-01T12:41:29;20.60;1.00
17918;DHT22;9084;50.956;3.106;2022-07-01T12:43:59;21.00;1.00
17918;DHT22;9084;50.956;3.106;2022-07-01T12:46:29;21.00;1.00
17918;DHT22;9084;50.956;3.106;2022-07-01T12:48:56;20.90;1.00
17918;DHT22;9084;50.956;3.106;2022-07-01T12:51:28;20.70;1.00
17918;DHT22;9084;50.956;3.106;2022-07-01T12:53:59;20.40;1.00
17918;DHT22;9084;50.956;3.106;2022-07-01T12:56:27;20.20;1.00
17918;DHT22;9084;50.956;3.106;2022-07-01T12:58:56;19.90;1.00
17918;DHT22;9084;50.956;3.106;2022-07-01T13:01:24;19.70;1.00
17918;DHT22;9084;50.956;3.106;2022-07-01T13:03:50;19.50;1.00
17918;DHT22;9084;50.956;3.106;2022-07-01T13:06:15;19.50;1.00
17918;DHT22;9084;50.956;3.106;2022-07-01T13:08:41;19.60;1.00
17918;DHT22;9084;50.956;3.106;2022-07-01T13:11:07;19.80;1.00
17918;DHT22;9084;50.956;3.106;2022-07-01T13:13:33;20.30;1.00
17918;DHT22;9084;50.956;3.106;2022-07-01T13:15:59;20.70;1.00
17918;DHT22;9084;50.956;3.106;2022-07-01T13:18:27;21.20;1.00
17918;DHT22;9084;50.956;3.106;2022-07-01T13:20:53;21.60;1.00
17918;DHT22;9084;50.956;3.106;2022-07-01T13:23:21;22.00;1.00
17918;DHT22;9084;50.956;3.106;2022-07-01T13:25:47;22.40;1.00
17918;DHT22;9084;50.956;3.106;2022-07-01T13:28:12;22.90;1.00
17918;DHT22;9084;50.956;3.106;2022-07-01T13:30:41;23.20;1.00
17918;DHT22;9084;50.956;3.106;2022-07-01T13:33:09;23.30;99.90
17918;DHT22;9084;50.956;3.106;2022-07-01T13:35:35;23.00;99.90
17918;DHT22;9084;50.956;3.106;2022-07-01T13:38:00;22.60;99.90
17918;DHT22;9084;50.956;3.106;2022-07-01T13:40:29;22.30;1.00
17918;DHT22;9084;50.956;3.106;2022-07-01T13:42:55;22.40;1.00
17918;DHT22;9084;50.956;3.106;2022-07-01T13:45:20;22.70;1.00
17918;DHT22;9084;50.956;3.106;2022-07-01T13:47:48;22.80;99.90
17918;DHT22;9084;50.956;3.106;2022-07-01T13:50:14;23.00;99.90
17918;DHT22;9084;50.956;3.106;2022-07-01T13:52:45;23.00;99.90
17918;DHT22;9084;50.956;3.106;2022-07-01T13:55:10;22.90;99.90
17918;DHT22;9084;50.956;3.106;2022-07-01T13:57:36;22.80;25.00
17918;DHT22;9084;50.956;3.106;2022-07-01T14:00:02;22.70;99.90
17918;DHT22;9084;50.956;3.106;2022-07-01T14:02:28;22.70;99.90
17918;DHT22;9084;50.956;3.106;2022-07-01T14:04:54;22.70;99.90
17918;DHT22;9084;50.956;3.106;2022-07-01T14:07:20;22.70;1.00
17918;DHT22;9084;50.956;3.106;2022-07-01T14:09:45;22.80;99.90
17918;DHT22;9084;50.956;3.106;2022-07-01T14:12:12;22.80;1.00
17918;DHT22;9084;50.956;3.106;2022-07-01T14:14:41;23.10;1.00
17918;DHT22;9084;50.956;3.106;2022-07-01T14:17:08;23.30;1.00
17918;DHT22;9084;50.956;3.106;2022-07-01T14:19:37;23.30;1.00
17918;DHT22;9084;50.956;3.106;2022-07-01T14:22:08;23.20;99.90
17918;DHT22;9084;50.956;3.106;2022-07-01T14:24:34;23.20;64.70
17918;DHT22;9084;50.956;3.106;2022-07-01T14:27:00;23.00;1.00
17918;DHT22;9084;50.956;3.106;2022-07-01T14:29:28;22.90;99.90
17918;DHT22;9084;50.956;3.106;2022-07-01T14:31:54;22.70;13.30
17918;DHT22;9084;50.956;3.106;2022-07-01T14:34:20;22.90;1.00
17918;DHT22;9084;50.956;3.106;2022-07-01T14:36:46;23.10;1.00
17918;DHT22;9084;50.956;3.106;2022-07-01T14:39:12;23.20;99.90
17918;DHT22;9084;50.956;3.106;2022-07-01T14:41:38;23.10;1.00
17918;DHT22;9084;50.956;3.106;2022-07-01T14:44:03;22.90;99.90
17918;DHT22;9084;50.956;3.106;2022-07-01T14:46:29;22.70;99.90
17918;DHT22;9084;50.956;3.106;2022-07-01T14:48:55;22.80;1.00
17918;DHT22;9084;50.956;3.106;2022-07-01T14:51:22;23.00;1.00
17918;DHT22;9084;50.956;3.106;2022-07-01T14:53:49;22.90;99.90
17918;DHT22;9084;50.956;3.106;2022-07-01T14:56:19;22.80;1.00
17918;DHT22;9084;50.956;3.106;2022-07-01T14:58:45;22.50;99.90
17918;DHT22;9084;50.956;3.106;2022-07-01T15:01:13;22.30;1.00
17918;DHT22;9084;50.956;3.106;2022-07-01T15:03:38;22.40;99.90
17918;DHT22;9084;50.956;3.106;2022-07-01T15:06:06;22.50;99.90
17918;DHT22;9084;50.956;3.106;2022-07-01T15:08:32;22.60;1.00
17918;DHT22;9084;50.956;3.106;2022-07-01T15:11:04;22.70;99.90
17918;DHT22;9084;50.956;3.106;2022-07-01T15:13:32;22.90;1.00
17918;DHT22;9084;50.956;3.106;2022-07-01T15:16:00;22.90;1.00
17918;DHT22;9084;50.956;3.106;2022-07-01T15:18:29;22.90;1.00
17918;DHT22;9084;50.956;3.106;2022-07-01T15:20:57;22.90;1.00
17918;DHT22;9084;50.956;3.106;2022-07-01T15:23:23;23.00;1.00
17918;DHT22;9084;50.956;3.106;2022-07-01T15:25:51;23.00;1.00
17918;DHT22;9084;50.956;3.106;2022-07-01T15:28:20;22.90;99.90
17918;DHT22;9084;50.956;3.106;2022-07-01T15:30:46;23.10;1.00
17918;DHT22;9084;50.956;3.106;2022-07-01T15:33:13;23.20;1.00
17918;DHT22;9084;50.956;3.106;2022-07-01T15:35:41;23.30;1.00
17918;DHT22;9084;50.956;3.106;2022-07-01T15:38:07;23.40;1.00
17918;DHT22;9084;50.956;3.106;2022-07-01T15:40:35;23.40;1.00
17918;DHT22;9084;50.956;3.106;2022-07-01T15:43:01;23.30;1.00
17918;DHT22;9084;50.956;3.106;2022-07-01T15:45:27;23.30;1.00
17918;DHT22;9084;50.956;3.106;2022-07-01T15:47:53;23.30;4.20
17918;DHT22;9084;50.956;3.106;2022-07-01T15:50:41;23.20;99.90
17918;DHT22;9084;50.956;3.106;2022-07-01T15:53:10;23.20;1.00
17918;DHT22;9084;50.956;3.106;2022-07-01T15:55:37;23.20;1.00
17918;DHT22;9084;50.956;3.106;2022-07-01T15:58:16;23.10;99.90
17918;DHT22;9084;50.956;3.106;2022-07-01T16:00:45;23.00;99.90
17918;DHT22;9084;50.956;3.106;2022-07-01T16:03:14;23.00;1.00
17918;DHT22;9084;50.956;3.106;2022-07-01T16:05:45;22.90;1.00
17918;DHT22;9084;50.956;3.106;2022-07-01T16:08:17;23.00;99.90
17918;DHT22;9084;50.956;3.106;2022-07-01T16:10:50;23.00;1.00
17918;DHT22;9084;50.956;3.106;2022-07-01T16:13:20;23.10;15.80
17918;DHT22;9084;50.956;3.106;2022-07-01T16:15:48;23.10;99.90
17918;DHT22;9084;50.956;3.106;2022-07-01T16:18:14;23.10;1.00